sensor_id;sensor_type;location;lat;lon;timestamp;P1;durP1;ratioP1;P2;durP2;ratioP2
32086;SDS011;18602;51.722;8.732;2022-10-16T00:00:28;3.70;;;2.28;;
32086;SDS011;18602;51.722;8.732;2022-10-16T00:02:54;7.18;;;3.70;;
32086;SDS011;18602;51.722;8.732;2022-10-16T00:05:20;6.10;;;1.92;;
32086;SDS011;18602;51.722;8.732;2022-10-16T00:07:46;6.00;;;2.03;;
32086;SDS011;18602;51.722;8.732;2022-10-16T00:10:12;8.85;;;2.22;;
32086;SDS011;18602;51.722;8.732;2022-10-16T00:12:38;6.80;;;2.25;;
32086;SDS011;18602;51.722;8.732;2022-10-16T00:15:04;10.48;;;2.63;;
32086;SDS011;18602;51.722;8.732;2022-10-16T00:17:31;8.57;;;2.45;;
32086;SDS011;18602;51.722;8.732;2022-10-16T00:19:57;7.75;;;3.13;;
32086;SDS011;18602;51.722;8.732;2022-10-16T00:22:23;18.40;;;2.97;;
32086;SDS011;18602;51.722;8.732;2022-10-16T00:24:49;10.32;;;2.83;;
32086;SDS011;18602;51.722;8.732;2022-10-16T00:27:15;6.45;;;3.03;;
32086;SDS011;18602;51.722;8.732;2022-10-16T00:29:41;6.95;;;3.00;;
32086;SDS011;18602;51.722;8.732;2022-10-16T00:32:07;5.65;;;3.05;;
32086;SDS011;18602;51.722;8.732;2022-10-16T00:34:33;8.70;;;4.38;;
32086;SDS011;18602;51.722;8.732;2022-10-16T00:36:59;19.20;;;4.82;;
32086;SDS011;18602;51.722;8.732;2022-10-16T00:39:25;6.60;;;2.90;;
32086;SDS011;18602;51.722;8.732;2022-10-16T00:41:51;8.05;;;2.63;;
32086;SDS011;18602;51.722;8.732;2022-10-16T00:47:01;5.10;;;2.40;;
32086;SDS011;18602;51.722;8.732;2022-10-16T00:49:27;7.95;;;2.55;;
32086;SDS011;18602;51.722;8.732;2022-10-16T00:51:53;4.78;;;2.38;;
32086;SDS011;18602;51.722;8.732;2022-10-16T00:54:23;5.63;;;2.30;;
32086;SDS011;18602;51.722;8.732;2022-10-16T00:56:50;5.38;;;2.35;;
32086;SDS011;18602;51.722;8.732;2022-10-16T00:59:18;5.68;;;2.33;;
32086;SDS011;18602;51.722;8.732;2022-10-16T01:01:44;7.30;;;2.53;;
32086;SDS011;18602;51.722;8.732;2022-10-16T01:04:10;7.22;;;2.33;;
32086;SDS011;18602;51.722;8.732;2022-10-16T01:06:43;10.18;;;2.47;;
32086;SDS011;18602;51.722;8.732;2022-10-16T01:11:44;11.85;;;1.90;;
32086;SDS011;18602;51.722;8.732;2022-10-16T01:17:00;3.55;;;2.00;;
32086;SDS011;18602;51.722;8.732;2022-10-16T01:22:11;12.98;;;3.15;;
32086;SDS011;18602;51.722;8.732;2022-10-16T01:24:39;3.50;;;1.85;;
32086;SDS011;18602;51.722;8.732;2022-10-16T01:27:12;5.28;;;2.00;;
32086;SDS011;18602;51.722;8.732;2022-10-16T01:29:45;6.18;;;1.98;;
32086;SDS011;18602;51.722;8.732;2022-10-16T01:32:23;2.85;;;1.80;;
32086;SDS011;18602;51.722;8.732;2022-10-16T01:34:58;4.30;;;1.98;;
32086;SDS011;18602;51.722;8.732;2022-10-16T01:37:28;5.95;;;1.90;;
32086;SDS011;18602;51.722;8.732;2022-10-16T01:39:55;7.03;;;2.03;;
32086;SDS011;18602;51.722;8.732;2022-10-16T01:42:24;6.07;;;1.75;;
32086;SDS011;18602;51.722;8.732;2022-10-16T01:44:52;6.32;;;1.85;;
32086;SDS011;18602;51.722;8.732;2022-10-16T01:47:19;2.97;;;1.63;;
32086;SDS011;18602;51.722;8.732;2022-10-16T01:49:48;3.92;;;2.00;;
32086;SDS011;18602;51.722;8.732;2022-10-16T01:54:40;4.72;;;1.60;;
32086;SDS011;18602;51.722;8.732;2022-10-16T01:57:07;6.07;;;1.83;;
32086;SDS011;18602;51.722;8.732;2022-10-16T01:59:35;4.90;;;1.80;;
32086;SDS011;18602;51.722;8.732;2022-10-16T02:02:04;3.00;;;1.50;;
32086;SDS011;18602;51.722;8.732;2022-10-16T02:06:57;6.53;;;1.50;;
32086;SDS011;18602;51.722;8.732;2022-10-16T02:09:23;5.38;;;1.55;;
32086;SDS011;18602;51.722;8.732;2022-10-16T02:11:49;2.35;;;1.27;;
32086;SDS011;18602;51.722;8.732;2022-10-16T02:14:16;8.38;;;1.88;;
32086;SDS011;18602;51.722;8.732;2022-10-16T02:16:44;7.30;;;1.55;;
32086;SDS011;18602;51.722;8.732;2022-10-16T02:19:10;2.45;;;1.08;;
32086;SDS011;18602;51.722;8.732;2022-10-16T02:21:41;3.53;;;1.25;;
32086;SDS011;18602;51.722;8.732;2022-10-16T02:24:11;9.32;;;1.60;;
32086;SDS011;18602;51.722;8.732;2022-10-16T02:26:48;7.90;;;1.80;;
32086;SDS011;18602;51.722;8.732;2022-10-16T02:29:17;2.05;;;1.40;;
32086;SDS011;18602;51.722;8.732;2022-10-16T02:31:46;7.18;;;2.20;;
32086;SDS011;18602;51.722;8.732;2022-10-16T02:34:14;2.75;;;1.23;;
32086;SDS011;18602;51.722;8.732;2022-10-16T02:36:40;6.47;;;1.58;;
32086;SDS011;18602;51.722;8.732;2022-10-16T02:39:07;4.63;;;1.95;;
32086;SDS011;18602;51.722;8.732;2022-10-16T02:44:00;8.00;;;1.60;;
32086;SDS011;18602;51.722;8.732;2022-10-16T02:46:26;2.80;;;1.05;;
32086;SDS011;18602;51.722;8.732;2022-10-16T02:48:51;2.00;;;1.00;;
32086;SDS011;18602;51.722;8.732;2022-10-16T02:51:17;2.15;;;1.50;;
32086;SDS011;18602;51.722;8.732;2022-10-16T02:53:43;2.25;;;1.00;;
32086;SDS011;18602;51.722;8.732;2022-10-16T02:56:09;6.03;;;1.30;;
32086;SDS011;18602;51.722;8.732;2022-10-16T02:58:35;3.38;;;1.48;;
32086;SDS011;18602;51.722;8.732;2022-10-16T03:01:01;4.70;;;1.25;;
32086;SDS011;18602;51.722;8.732;2022-10-16T03:03:27;5.88;;;1.20;;
32086;SDS011;18602;51.722;8.732;2022-10-16T03:05:53;3.65;;;1.33;;
32086;SDS011;18602;51.722;8.732;2022-10-16T03:08:19;2.05;;;1.05;;
32086;SDS011;18602;51.722;8.732;2022-10-16T03:10:48;2.05;;;1.10;;
32086;SDS011;18602;51.722;8.732;2022-10-16T03:13:14;1.98;;;0.90;;
32086;SDS011;18602;51.722;8.732;2022-10-16T03:15:40;3.55;;;1.55;;
32086;SDS011;18602;51.722;8.732;2022-10-16T03:18:06;3.20;;;1.15;;
32086;SDS011;18602;51.722;8.732;2022-10-16T03:20:32;2.47;;;1.38;;
32086;SDS011;18602;51.722;8.732;2022-10-16T03:22:58;3.38;;;1.25;;
32086;SDS011;18602;51.722;8.732;2022-10-16T03:25:24;2.78;;;1.05;;
32086;SDS011;18602;51.722;8.732;2022-10-16T03:27:49;1.50;;;1.20;;
32086;SDS011;18602;51.722;8.732;2022-10-16T03:30:15;6.00;;;0.90;;
32086;SDS011;18602;51.722;8.732;2022-10-16T03:32:43;2.45;;;1.10;;
32086;SDS011;18602;51.722;8.732;2022-10-16T03:35:09;3.15;;;1.08;;
32086;SDS011;18602;51.722;8.732;2022-10-16T03:37:35;2.15;;;1.10;;
32086;SDS011;18602;51.722;8.732;2022-10-16T03:40:02;3.60;;;1.20;;
32086;SDS011;18602;51.722;8.732;2022-10-16T03:42:28;1.27;;;1.10;;
32086;SDS011;18602;51.722;8.732;2022-10-16T03:44:54;7.85;;;1.17;;
32086;SDS011;18602;51.722;8.732;2022-10-16T03:47:19;6.53;;;0.85;;
32086;SDS011;18602;51.722;8.732;2022-10-16T03:49:48;1.15;;;0.70;;
32086;SDS011;18602;51.722;8.732;2022-10-16T03:52:14;5.38;;;1.10;;
32086;SDS011;18602;51.722;8.732;2022-10-16T03:54:40;3.35;;;0.93;;
32086;SDS011;18602;51.722;8.732;2022-10-16T03:57:05;2.85;;;1.48;;
32086;SDS011;18602;51.722;8.732;2022-10-16T03:59:31;2.67;;;1.48;;
32086;SDS011;18602;51.722;8.732;2022-10-16T04:01:57;3.00;;;1.38;;
32086;SDS011;18602;51.722;8.732;2022-10-16T04:04:23;4.45;;;1.17;;
32086;SDS011;18602;51.722;8.732;2022-10-16T04:06:50;11.77;;;0.90;;
32086;SDS011;18602;51.722;8.732;2022-10-16T04:09:16;4.00;;;1.17;;
32086;SDS011;18602;51.722;8.732;2022-10-16T04:11:42;7.47;;;0.95;;
32086;SDS011;18602;51.722;8.732;2022-10-16T04:14:08;2.15;;;1.13;;
32086;SDS011;18602;51.722;8.732;2022-10-16T04:16:34;1.92;;;0.93;;
32086;SDS011;18602;51.722;8.732;2022-10-16T04:19:00;6.60;;;1.10;;
32086;SDS011;18602;51.722;8.732;2022-10-16T04:21:26;1.73;;;1.10;;
32086;SDS011;18602;51.722;8.732;2022-10-16T04:23:52;3.33;;;0.93;;
32086;SDS011;18602;51.722;8.732;2022-10-16T04:26:17;3.08;;;0.90;;
32086;SDS011;18602;51.722;8.732;2022-10-16T04:28:43;5.28;;;1.15;;
32086;SDS011;18602;51.722;8.732;2022-10-16T04:31:09;2.92;;;1.13;;
32086;SDS011;18602;51.722;8.732;2022-10-16T04:33:35;2.45;;;1.40;;
32086;SDS011;18602;51.722;8.732;2022-10-16T04:36:02;9.32;;;1.30;;
32086;SDS011;18602;51.722;8.732;2022-10-16T04:38:28;3.63;;;1.48;;
32086;SDS011;18602;51.722;8.732;2022-10-16T04:43:21;1.20;;;1.00;;
32086;SDS011;18602;51.722;8.732;2022-10-16T04:45:47;4.03;;;1.17;;
32086;SDS011;18602;51.722;8.732;2022-10-16T04:48:15;4.05;;;1.10;;
32086;SDS011;18602;51.722;8.732;2022-10-16T04:50:41;4.43;;;1.13;;
32086;SDS011;18602;51.722;8.732;2022-10-16T04:53:07;7.93;;;1.77;;
32086;SDS011;18602;51.722;8.732;2022-10-16T04:55:33;3.35;;;1.20;;
32086;SDS011;18602;51.722;8.732;2022-10-16T04:57:59;3.53;;;0.75;;
32086;SDS011;18602;51.722;8.732;2022-10-16T05:00:25;4.72;;;1.73;;
32086;SDS011;18602;51.722;8.732;2022-10-16T05:02:51;1.38;;;0.80;;
32086;SDS011;18602;51.722;8.732;2022-10-16T05:05:17;1.13;;;0.85;;
32086;SDS011;18602;51.722;8.732;2022-10-16T05:07:46;1.65;;;0.82;;
32086;SDS011;18602;51.722;8.732;2022-10-16T05:10:12;2.58;;;1.38;;
32086;SDS011;18602;51.722;8.732;2022-10-16T05:12:38;3.20;;;1.35;;
32086;SDS011;18602;51.722;8.732;2022-10-16T05:15:04;10.80;;;1.00;;
32086;SDS011;18602;51.722;8.732;2022-10-16T05:17:31;1.08;;;0.70;;
32086;SDS011;18602;51.722;8.732;2022-10-16T05:19:57;1.20;;;0.90;;
32086;SDS011;18602;51.722;8.732;2022-10-16T05:22:22;1.55;;;0.95;;
32086;SDS011;18602;51.722;8.732;2022-10-16T05:24:48;3.75;;;1.10;;
32086;SDS011;18602;51.722;8.732;2022-10-16T05:27:14;1.98;;;0.93;;
32086;SDS011;18602;51.722;8.732;2022-10-16T05:29:44;4.82;;;0.93;;
32086;SDS011;18602;51.722;8.732;2022-10-16T05:32:11;1.83;;;1.05;;
32086;SDS011;18602;51.722;8.732;2022-10-16T05:34:37;1.80;;;0.90;;
32086;SDS011;18602;51.722;8.732;2022-10-16T05:37:03;1.73;;;0.80;;
32086;SDS011;18602;51.722;8.732;2022-10-16T05:39:29;1.90;;;0.90;;
32086;SDS011;18602;51.722;8.732;2022-10-16T05:41:55;1.45;;;0.80;;
32086;SDS011;18602;51.722;8.732;2022-10-16T05:44:21;0.65;;;0.65;;
32086;SDS011;18602;51.722;8.732;2022-10-16T05:46:47;1.30;;;0.80;;
32086;SDS011;18602;51.722;8.732;2022-10-16T05:49:13;4.32;;;0.80;;
32086;SDS011;18602;51.722;8.732;2022-10-16T05:51:39;6.53;;;3.65;;
32086;SDS011;18602;51.722;8.732;2022-10-16T05:54:06;8.25;;;4.28;;
32086;SDS011;18602;51.722;8.732;2022-10-16T05:56:32;9.05;;;1.40;;
32086;SDS011;18602;51.722;8.732;2022-10-16T05:58:58;10.82;;;1.15;;
32086;SDS011;18602;51.722;8.732;2022-10-16T06:01:23;2.05;;;0.88;;
32086;SDS011;18602;51.722;8.732;2022-10-16T06:03:52;2.83;;;0.88;;
32086;SDS011;18602;51.722;8.732;2022-10-16T06:06:19;1.83;;;0.82;;
32086;SDS011;18602;51.722;8.732;2022-10-16T06:08:46;5.13;;;1.20;;
32086;SDS011;18602;51.722;8.732;2022-10-16T06:13:38;3.40;;;0.95;;
32086;SDS011;18602;51.722;8.732;2022-10-16T06:16:06;3.55;;;0.80;;
32086;SDS011;18602;51.722;8.732;2022-10-16T06:18:33;1.63;;;0.95;;
32086;SDS011;18602;51.722;8.732;2022-10-16T06:20:59;1.67;;;0.80;;
32086;SDS011;18602;51.722;8.732;2022-10-16T06:23:25;2.25;;;0.85;;
32086;SDS011;18602;51.722;8.732;2022-10-16T06:28:17;1.23;;;0.73;;
32086;SDS011;18602;51.722;8.732;2022-10-16T06:30:43;2.30;;;0.93;;
32086;SDS011;18602;51.722;8.732;2022-10-16T06:33:09;3.42;;;0.80;;
32086;SDS011;18602;51.722;8.732;2022-10-16T06:35:35;6.38;;;0.90;;
32086;SDS011;18602;51.722;8.732;2022-10-16T06:38:01;6.05;;;1.10;;
32086;SDS011;18602;51.722;8.732;2022-10-16T06:40:27;2.45;;;1.15;;
32086;SDS011;18602;51.722;8.732;2022-10-16T06:42:56;2.03;;;0.85;;
32086;SDS011;18602;51.722;8.732;2022-10-16T06:45:22;4.30;;;1.13;;
32086;SDS011;18602;51.722;8.732;2022-10-16T06:47:48;3.88;;;1.00;;
32086;SDS011;18602;51.722;8.732;2022-10-16T06:50:14;1.13;;;0.77;;
32086;SDS011;18602;51.722;8.732;2022-10-16T06:52:40;4.38;;;1.05;;
32086;SDS011;18602;51.722;8.732;2022-10-16T06:55:06;1.33;;;0.88;;
32086;SDS011;18602;51.722;8.732;2022-10-16T06:57:32;0.73;;;0.73;;
32086;SDS011;18602;51.722;8.732;2022-10-16T06:59:58;0.95;;;0.63;;
32086;SDS011;18602;51.722;8.732;2022-10-16T07:02:24;1.27;;;0.95;;
32086;SDS011;18602;51.722;8.732;2022-10-16T07:04:50;1.20;;;0.80;;
32086;SDS011;18602;51.722;8.732;2022-10-16T07:07:16;1.15;;;0.80;;
32086;SDS011;18602;51.722;8.732;2022-10-16T07:09:42;7.15;;;3.97;;
32086;SDS011;18602;51.722;8.732;2022-10-16T07:12:08;2.80;;;1.80;;
32086;SDS011;18602;51.722;8.732;2022-10-16T07:14:34;3.05;;;1.52;;
32086;SDS011;18602;51.722;8.732;2022-10-16T07:17:00;2.58;;;1.25;;
32086;SDS011;18602;51.722;8.732;2022-10-16T07:19:26;1.90;;;1.10;;
32086;SDS011;18602;51.722;8.732;2022-10-16T07:21:52;2.17;;;1.13;;
32086;SDS011;18602;51.722;8.732;2022-10-16T07:24:17;0.95;;;0.80;;
32086;SDS011;18602;51.722;8.732;2022-10-16T07:26:44;1.85;;;0.80;;
32086;SDS011;18602;51.722;8.732;2022-10-16T07:29:11;4.57;;;1.35;;
32086;SDS011;18602;51.722;8.732;2022-10-16T07:31:38;1.48;;;0.93;;
32086;SDS011;18602;51.722;8.732;2022-10-16T07:36:30;9.07;;;1.45;;
32086;SDS011;18602;51.722;8.732;2022-10-16T07:38:56;1.25;;;0.90;;
32086;SDS011;18602;51.722;8.732;2022-10-16T07:41:22;2.17;;;0.80;;
32086;SDS011;18602;51.722;8.732;2022-10-16T07:43:49;3.63;;;1.02;;
32086;SDS011;18602;51.722;8.732;2022-10-16T07:46:15;9.23;;;1.05;;
32086;SDS011;18602;51.722;8.732;2022-10-16T07:51:10;2.53;;;1.30;;
32086;SDS011;18602;51.722;8.732;2022-10-16T07:53:36;3.92;;;1.10;;
32086;SDS011;18602;51.722;8.732;2022-10-16T07:56:06;4.50;;;2.45;;
32086;SDS011;18602;51.722;8.732;2022-10-16T07:58:32;7.22;;;2.75;;
32086;SDS011;18602;51.722;8.732;2022-10-16T08:00:59;4.68;;;1.42;;
32086;SDS011;18602;51.722;8.732;2022-10-16T08:03:28;2.47;;;0.90;;
32086;SDS011;18602;51.722;8.732;2022-10-16T08:05:54;1.55;;;0.90;;
32086;SDS011;18602;51.722;8.732;2022-10-16T08:08:22;3.88;;;1.45;;
32086;SDS011;18602;51.722;8.732;2022-10-16T08:10:48;2.03;;;1.10;;
32086;SDS011;18602;51.722;8.732;2022-10-16T08:13:14;3.97;;;0.90;;
32086;SDS011;18602;51.722;8.732;2022-10-16T08:15:41;2.22;;;0.80;;
32086;SDS011;18602;51.722;8.732;2022-10-16T08:18:07;1.20;;;0.77;;
32086;SDS011;18602;51.722;8.732;2022-10-16T08:20:33;7.07;;;3.10;;
32086;SDS011;18602;51.722;8.732;2022-10-16T08:22:59;2.35;;;0.90;;
32086;SDS011;18602;51.722;8.732;2022-10-16T08:27:51;3.95;;;0.70;;
32086;SDS011;18602;51.722;8.732;2022-10-16T08:30:18;2.03;;;0.90;;
32086;SDS011;18602;51.722;8.732;2022-10-16T08:32:44;0.57;;;0.57;;
32086;SDS011;18602;51.722;8.732;2022-10-16T08:35:10;5.57;;;0.93;;
32086;SDS011;18602;51.722;8.732;2022-10-16T08:40:03;2.85;;;0.73;;
32086;SDS011;18602;51.722;8.732;2022-10-16T08:42:31;2.90;;;0.70;;
32086;SDS011;18602;51.722;8.732;2022-10-16T08:47:54;1.63;;;0.70;;
32086;SDS011;18602;51.722;8.732;2022-10-16T08:52:48;3.90;;;1.60;;
32086;SDS011;18602;51.722;8.732;2022-10-16T08:55:17;6.60;;;1.83;;
32086;SDS011;18602;51.722;8.732;2022-10-16T08:57:45;0.73;;;0.73;;
32086;SDS011;18602;51.722;8.732;2022-10-16T09:00:14;2.05;;;0.70;;
32086;SDS011;18602;51.722;8.732;2022-10-16T09:02:42;1.85;;;0.63;;
32086;SDS011;18602;51.722;8.732;2022-10-16T09:05:24;5.78;;;0.93;;
32086;SDS011;18602;51.722;8.732;2022-10-16T09:13:19;2.45;;;1.05;;
32086;SDS011;18602;51.722;8.732;2022-10-16T09:15:49;2.95;;;1.00;;
32086;SDS011;18602;51.722;8.732;2022-10-16T09:18:26;3.08;;;0.80;;
32086;SDS011;18602;51.722;8.732;2022-10-16T09:23:38;1.00;;;0.68;;
32086;SDS011;18602;51.722;8.732;2022-10-16T09:26:05;1.65;;;0.70;;
32086;SDS011;18602;51.722;8.732;2022-10-16T09:28:31;3.75;;;1.00;;
32086;SDS011;18602;51.722;8.732;2022-10-16T09:30:57;2.55;;;0.90;;
32086;SDS011;18602;51.722;8.732;2022-10-16T09:33:28;1.55;;;0.85;;
32086;SDS011;18602;51.722;8.732;2022-10-16T09:35:55;1.77;;;0.90;;
32086;SDS011;18602;51.722;8.732;2022-10-16T09:40:49;7.07;;;2.80;;
32086;SDS011;18602;51.722;8.732;2022-10-16T09:43:25;4.70;;;1.27;;
32086;SDS011;18602;51.722;8.732;2022-10-16T09:46:03;5.28;;;1.05;;
32086;SDS011;18602;51.722;8.732;2022-10-16T09:48:46;2.00;;;1.00;;
32086;SDS011;18602;51.722;8.732;2022-10-16T09:51:18;3.85;;;1.33;;
32086;SDS011;18602;51.722;8.732;2022-10-16T09:53:45;6.03;;;1.27;;
32086;SDS011;18602;51.722;8.732;2022-10-16T09:56:20;7.43;;;1.75;;
32086;SDS011;18602;51.722;8.732;2022-10-16T09:58:50;2.25;;;0.90;;
32086;SDS011;18602;51.722;8.732;2022-10-16T10:01:16;20.50;;;1.67;;
32086;SDS011;18602;51.722;8.732;2022-10-16T10:03:43;4.45;;;0.90;;
32086;SDS011;18602;51.722;8.732;2022-10-16T10:06:17;1.42;;;0.90;;
32086;SDS011;18602;51.722;8.732;2022-10-16T10:08:53;5.45;;;1.35;;
32086;SDS011;18602;51.722;8.732;2022-10-16T10:14:26;4.10;;;1.00;;
32086;SDS011;18602;51.722;8.732;2022-10-16T10:16:51;2.97;;;1.00;;
32086;SDS011;18602;51.722;8.732;2022-10-16T10:19:18;1.05;;;0.80;;
32086;SDS011;18602;51.722;8.732;2022-10-16T10:21:45;2.35;;;1.05;;
32086;SDS011;18602;51.722;8.732;2022-10-16T10:24:12;3.47;;;1.20;;
32086;SDS011;18602;51.722;8.732;2022-10-16T10:26:38;2.58;;;0.80;;
32086;SDS011;18602;51.722;8.732;2022-10-16T10:34:03;3.72;;;0.90;;
32086;SDS011;18602;51.722;8.732;2022-10-16T10:39:15;2.65;;;0.80;;
32086;SDS011;18602;51.722;8.732;2022-10-16T10:41:53;1.38;;;0.50;;
32086;SDS011;18602;51.722;8.732;2022-10-16T10:44:29;2.13;;;0.57;;
32086;SDS011;18602;51.722;8.732;2022-10-16T10:46:58;2.30;;;0.70;;
32086;SDS011;18602;51.722;8.732;2022-10-16T10:57:21;3.85;;;0.80;;
32086;SDS011;18602;51.722;8.732;2022-10-16T10:59:51;1.40;;;0.75;;
32086;SDS011;18602;51.722;8.732;2022-10-16T11:07:49;3.15;;;0.70;;
32086;SDS011;18602;51.722;8.732;2022-10-16T11:10:18;5.72;;;0.57;;
32086;SDS011;18602;51.722;8.732;2022-10-16T11:12:47;3.03;;;0.52;;
32086;SDS011;18602;51.722;8.732;2022-10-16T11:15:17;0.40;;;0.40;;
32086;SDS011;18602;51.722;8.732;2022-10-16T11:17:55;4.28;;;2.30;;
32086;SDS011;18602;51.722;8.732;2022-10-16T11:20:24;2.53;;;1.02;;
32086;SDS011;18602;51.722;8.732;2022-10-16T11:22:53;1.08;;;0.70;;
32086;SDS011;18602;51.722;8.732;2022-10-16T11:25:24;3.88;;;0.63;;
32086;SDS011;18602;51.722;8.732;2022-10-16T11:27:57;2.10;;;0.60;;
32086;SDS011;18602;51.722;8.732;2022-10-16T11:30:26;4.13;;;0.73;;
32086;SDS011;18602;51.722;8.732;2022-10-16T11:33:04;1.25;;;0.60;;
32086;SDS011;18602;51.722;8.732;2022-10-16T11:35:44;1.60;;;0.50;;
32086;SDS011;18602;51.722;8.732;2022-10-16T11:38:14;7.78;;;0.75;;
32086;SDS011;18602;51.722;8.732;2022-10-16T11:40:41;2.67;;;0.60;;
32086;SDS011;18602;51.722;8.732;2022-10-16T11:43:21;2.50;;;0.50;;
32086;SDS011;18602;51.722;8.732;2022-10-16T11:45:54;2.00;;;0.50;;
32086;SDS011;18602;51.722;8.732;2022-10-16T11:48:26;2.55;;;0.50;;
32086;SDS011;18602;51.722;8.732;2022-10-16T11:50:54;1.95;;;0.63;;
32086;SDS011;18602;51.722;8.732;2022-10-16T11:55:52;0.50;;;0.50;;
32086;SDS011;18602;51.722;8.732;2022-10-16T12:03:39;4.68;;;0.80;;
32086;SDS011;18602;51.722;8.732;2022-10-16T12:06:11;0.77;;;0.50;;
32086;SDS011;18602;51.722;8.732;2022-10-16T12:08:39;3.25;;;0.60;;
32086;SDS011;18602;51.722;8.732;2022-10-16T12:11:06;2.45;;;0.68;;
32086;SDS011;18602;51.722;8.732;2022-10-16T12:13:39;0.77;;;0.50;;
32086;SDS011;18602;51.722;8.732;2022-10-16T12:16:07;3.05;;;0.50;;
32086;SDS011;18602;51.722;8.732;2022-10-16T12:18:45;3.35;;;1.60;;
32086;SDS011;18602;51.722;8.732;2022-10-16T12:21:13;1.85;;;0.80;;
32086;SDS011;18602;51.722;8.732;2022-10-16T12:23:56;1.67;;;0.50;;
32086;SDS011;18602;51.722;8.732;2022-10-16T12:26:27;1.15;;;0.60;;
32086;SDS011;18602;51.722;8.732;2022-10-16T12:28:54;3.63;;;0.63;;
32086;SDS011;18602;51.722;8.732;2022-10-16T12:31:20;1.38;;;0.60;;
32086;SDS011;18602;51.722;8.732;2022-10-16T12:34:01;1.50;;;0.47;;
32086;SDS011;18602;51.722;8.732;2022-10-16T12:36:32;2.97;;;0.60;;
32086;SDS011;18602;51.722;8.732;2022-10-16T12:38:58;1.65;;;0.50;;
32086;SDS011;18602;51.722;8.732;2022-10-16T12:41:29;1.98;;;0.43;;
32086;SDS011;18602;51.722;8.732;2022-10-16T12:43:55;5.97;;;1.17;;
32086;SDS011;18602;51.722;8.732;2022-10-16T12:46:23;2.60;;;0.55;;
32086;SDS011;18602;51.722;8.732;2022-10-16T12:48:49;3.20;;;0.50;;
32086;SDS011;18602;51.722;8.732;2022-10-16T12:54:16;2.78;;;0.90;;
32086;SDS011;18602;51.722;8.732;2022-10-16T12:59:32;4.15;;;1.48;;
32086;SDS011;18602;51.722;8.732;2022-10-16T13:02:18;1.75;;;0.47;;
32086;SDS011;18602;51.722;8.732;2022-10-16T13:10:09;2.55;;;0.45;;
32086;SDS011;18602;51.722;8.732;2022-10-16T13:23:16;1.45;;;0.60;;
32086;SDS011;18602;51.722;8.732;2022-10-16T13:28:28;8.80;;;0.65;;
32086;SDS011;18602;51.722;8.732;2022-10-16T13:30:57;2.53;;;0.55;;
32086;SDS011;18602;51.722;8.732;2022-10-16T13:33:26;1.23;;;0.50;;
32086;SDS011;18602;51.722;8.732;2022-10-16T13:35:55;1.67;;;0.47;;
32086;SDS011;18602;51.722;8.732;2022-10-16T13:38:22;1.02;;;0.50;;
32086;SDS011;18602;51.722;8.732;2022-10-16T13:40:55;5.90;;;0.70;;
32086;SDS011;18602;51.722;8.732;2022-10-16T13:43:26;3.42;;;0.57;;
32086;SDS011;18602;51.722;8.732;2022-10-16T13:45:53;8.15;;;0.70;;
32086;SDS011;18602;51.722;8.732;2022-10-16T13:48:19;4.05;;;0.50;;
32086;SDS011;18602;51.722;8.732;2022-10-16T13:50:45;4.25;;;0.63;;
32086;SDS011;18602;51.722;8.732;2022-10-16T13:53:14;3.15;;;1.02;;
32086;SDS011;18602;51.722;8.732;2022-10-16T13:55:40;2.20;;;0.60;;
32086;SDS011;18602;51.722;8.732;2022-10-16T13:58:13;4.35;;;0.68;;
32086;SDS011;18602;51.722;8.732;2022-10-16T14:00:39;2.63;;;0.60;;
32086;SDS011;18602;51.722;8.732;2022-10-16T14:05:31;2.50;;;0.40;;
32086;SDS011;18602;51.722;8.732;2022-10-16T14:07:57;1.15;;;0.73;;
32086;SDS011;18602;51.722;8.732;2022-10-16T14:10:27;2.13;;;0.68;;
32086;SDS011;18602;51.722;8.732;2022-10-16T14:15:27;4.00;;;0.70;;
32086;SDS011;18602;51.722;8.732;2022-10-16T14:17:53;3.53;;;0.60;;
32086;SDS011;18602;51.722;8.732;2022-10-16T14:20:20;1.05;;;0.45;;
32086;SDS011;18602;51.722;8.732;2022-10-16T14:22:48;3.13;;;0.85;;
32086;SDS011;18602;51.722;8.732;2022-10-16T14:25:27;2.83;;;0.50;;
32086;SDS011;18602;51.722;8.732;2022-10-16T14:30:23;1.77;;;0.50;;
32086;SDS011;18602;51.722;8.732;2022-10-16T14:33:03;1.42;;;0.60;;
32086;SDS011;18602;51.722;8.732;2022-10-16T14:35:30;2.50;;;0.60;;
32086;SDS011;18602;51.722;8.732;2022-10-16T14:37:57;1.88;;;0.50;;
32086;SDS011;18602;51.722;8.732;2022-10-16T14:40:24;1.10;;;0.63;;
32086;SDS011;18602;51.722;8.732;2022-10-16T14:42:51;3.85;;;0.65;;
32086;SDS011;18602;51.722;8.732;2022-10-16T14:45:20;4.00;;;0.70;;
32086;SDS011;18602;51.722;8.732;2022-10-16T14:47:48;2.80;;;0.68;;
32086;SDS011;18602;51.722;8.732;2022-10-16T14:50:14;5.70;;;0.80;;
32086;SDS011;18602;51.722;8.732;2022-10-16T14:52:40;1.38;;;0.60;;
32086;SDS011;18602;51.722;8.732;2022-10-16T14:55:08;2.00;;;0.43;;
32086;SDS011;18602;51.722;8.732;2022-10-16T14:57:34;1.40;;;0.52;;
32086;SDS011;18602;51.722;8.732;2022-10-16T15:00:01;2.17;;;0.55;;
32086;SDS011;18602;51.722;8.732;2022-10-16T15:02:31;3.80;;;0.80;;
32086;SDS011;18602;51.722;8.732;2022-10-16T15:04:58;0.77;;;0.40;;
32086;SDS011;18602;51.722;8.732;2022-10-16T15:07:27;3.22;;;0.60;;
32086;SDS011;18602;51.722;8.732;2022-10-16T15:09:53;0.75;;;0.50;;
32086;SDS011;18602;51.722;8.732;2022-10-16T15:12:21;3.17;;;0.65;;
32086;SDS011;18602;51.722;8.732;2022-10-16T15:14:46;5.38;;;0.85;;
32086;SDS011;18602;51.722;8.732;2022-10-16T15:17:12;1.60;;;0.63;;
32086;SDS011;18602;51.722;8.732;2022-10-16T15:19:38;1.55;;;0.60;;
32086;SDS011;18602;51.722;8.732;2022-10-16T15:22:04;3.42;;;0.50;;
32086;SDS011;18602;51.722;8.732;2022-10-16T15:24:30;2.83;;;0.90;;
32086;SDS011;18602;51.722;8.732;2022-10-16T15:26:56;4.50;;;0.75;;
32086;SDS011;18602;51.722;8.732;2022-10-16T15:29:22;3.10;;;0.88;;
32086;SDS011;18602;51.722;8.732;2022-10-16T15:31:48;1.83;;;0.50;;
32086;SDS011;18602;51.722;8.732;2022-10-16T15:34:14;1.60;;;0.80;;
32086;SDS011;18602;51.722;8.732;2022-10-16T15:36:40;1.83;;;0.63;;
32086;SDS011;18602;51.722;8.732;2022-10-16T15:39:13;7.82;;;1.05;;
32086;SDS011;18602;51.722;8.732;2022-10-16T15:41:40;3.70;;;0.65;;
32086;SDS011;18602;51.722;8.732;2022-10-16T15:46:32;5.38;;;0.80;;
32086;SDS011;18602;51.722;8.732;2022-10-16T15:48:59;2.58;;;0.80;;
32086;SDS011;18602;51.722;8.732;2022-10-16T15:51:25;3.20;;;1.20;;
32086;SDS011;18602;51.722;8.732;2022-10-16T15:53:57;11.35;;;6.47;;
32086;SDS011;18602;51.722;8.732;2022-10-16T15:56:23;6.30;;;4.10;;
32086;SDS011;18602;51.722;8.732;2022-10-16T15:58:50;6.40;;;1.98;;
32086;SDS011;18602;51.722;8.732;2022-10-16T16:03:42;4.25;;;1.23;;
32086;SDS011;18602;51.722;8.732;2022-10-16T16:06:10;4.10;;;1.60;;
32086;SDS011;18602;51.722;8.732;2022-10-16T16:08:36;3.22;;;1.55;;
32086;SDS011;18602;51.722;8.732;2022-10-16T16:11:06;4.72;;;1.83;;
32086;SDS011;18602;51.722;8.732;2022-10-16T16:13:32;8.68;;;2.80;;
32086;SDS011;18602;51.722;8.732;2022-10-16T16:15:58;13.25;;;3.78;;
32086;SDS011;18602;51.722;8.732;2022-10-16T16:18:24;5.95;;;2.60;;
32086;SDS011;18602;51.722;8.732;2022-10-16T16:20:51;8.85;;;2.80;;
32086;SDS011;18602;51.722;8.732;2022-10-16T16:23:17;9.15;;;3.08;;
32086;SDS011;18602;51.722;8.732;2022-10-16T16:25:44;6.18;;;3.28;;
32086;SDS011;18602;51.722;8.732;2022-10-16T16:28:10;7.15;;;3.28;;
32086;SDS011;18602;51.722;8.732;2022-10-16T16:30:39;11.05;;;3.45;;
32086;SDS011;18602;51.722;8.732;2022-10-16T16:33:05;6.43;;;3.40;;
32086;SDS011;18602;51.722;8.732;2022-10-16T16:35:31;8.30;;;3.65;;
32086;SDS011;18602;51.722;8.732;2022-10-16T16:37:57;12.68;;;4.07;;
32086;SDS011;18602;51.722;8.732;2022-10-16T16:40:22;9.05;;;3.78;;
32086;SDS011;18602;51.722;8.732;2022-10-16T16:42:48;6.57;;;3.60;;
32086;SDS011;18602;51.722;8.732;2022-10-16T16:45:14;11.60;;;3.60;;
32086;SDS011;18602;51.722;8.732;2022-10-16T16:47:40;8.05;;;3.58;;
32086;SDS011;18602;51.722;8.732;2022-10-16T16:50:06;9.35;;;4.15;;